createdAt,value
2022-10-05T00:01:07.767Z,5.20
2022-10-05T00:04:16.253Z,5.80
2022-10-05T00:07:17.734Z,5.10
2022-10-05T00:10:07.956Z,6.40
2022-10-05T00:12:55.215Z,6.05
2022-10-05T00:15:43.650Z,6.55
2022-10-05T00:18:31.221Z,6.97
2022-10-05T00:21:26.973Z,7.08
2022-10-05T00:24:17.002Z,7.25
2022-10-05T00:27:16.789Z,6.20
2022-10-05T00:30:10.230Z,6.05
2022-10-05T00:32:59.833Z,7.40
2022-10-05T00:35:46.247Z,7.10
2022-10-05T00:38:33.989Z,7.17
2022-10-05T00:41:24.208Z,6.33
2022-10-05T00:44:17.392Z,5.72
2022-10-05T00:47:33.389Z,5.80
2022-10-05T00:50:36.001Z,6.47
2022-10-05T00:53:32.463Z,6.40
2022-10-05T00:56:28.523Z,6.00
2022-10-05T00:59:36.915Z,4.37
2022-10-05T01:02:37.032Z,6.40
2022-10-05T01:05:57.511Z,6.42
2022-10-05T01:09:15.221Z,6.08
2022-10-05T01:12:23.649Z,6.30
2022-10-05T01:15:16.917Z,5.97
2022-10-05T01:18:15.947Z,6.47
2022-10-05T01:21:27.458Z,5.90
2022-10-05T01:24:34.091Z,6.40
2022-10-05T01:27:39.667Z,6.70
2022-10-05T01:30:27.847Z,6.65
2022-10-05T01:33:21.425Z,7.05
2022-10-05T01:36:17.720Z,8.15
2022-10-05T01:39:15.437Z,7.92
2022-10-05T01:42:05.972Z,7.20
2022-10-05T01:45:02.018Z,7.50
2022-10-05T01:47:52.454Z,8.03
2022-10-05T01:50:54.940Z,7.28
2022-10-05T01:53:51.234Z,7.15
2022-10-05T01:56:41.594Z,6.72
2022-10-05T02:00:00.609Z,6.85
2022-10-05T02:02:50.901Z,6.37
2022-10-05T02:05:44.195Z,6.42
2022-10-05T02:08:34.816Z,7.47
2022-10-05T02:11:22.877Z,8.10
2022-10-05T02:14:16.189Z,8.43
2022-10-05T02:17:06.728Z,8.75
2022-10-05T02:19:57.500Z,8.88
2022-10-05T02:22:55.568Z,8.45
2022-10-05T02:25:46.213Z,7.55
2022-10-05T02:28:39.632Z,7.55
2022-10-05T02:31:47.697Z,7.47
2022-10-05T02:34:42.580Z,8.38
2022-10-05T02:37:35.603Z,7.50
2022-10-05T02:40:31.633Z,8.30
2022-10-05T02:43:45.851Z,8.38
2022-10-05T02:46:36.669Z,7.85
2022-10-05T02:49:41.881Z,7.97
2022-10-05T02:52:44.557Z,7.95
2022-10-05T02:55:54.367Z,7.75
2022-10-05T02:58:47.817Z,8.28
2022-10-05T03:01:56.401Z,7.37
2022-10-05T03:04:52.668Z,7.92
2022-10-05T03:07:45.503Z,8.88
2022-10-05T03:10:52.663Z,9.58
2022-10-05T03:13:49.170Z,7.35
2022-10-05T03:16:42.862Z,8.38
2022-10-05T03:20:02.246Z,7.87
2022-10-05T03:22:55.591Z,8.28
2022-10-05T03:25:51.900Z,8.08
2022-10-05T03:28:51.288Z,8.70
2022-10-05T03:31:44.426Z,8.18
2022-10-05T03:34:58.177Z,7.87
2022-10-05T03:38:07.987Z,8.23
2022-10-05T03:41:01.341Z,7.03
2022-10-05T03:44:03.873Z,7.00
2022-10-05T03:47:21.671Z,7.55
2022-10-05T03:50:37.473Z,7.83
2022-10-05T03:53:30.873Z,6.92
2022-10-05T03:56:32.904Z,8.13
2022-10-05T03:59:23.404Z,7.97
2022-10-05T04:02:25.974Z,7.85
2022-10-05T04:05:16.177Z,7.25
2022-10-05T04:08:08.887Z,6.60
2022-10-05T04:10:59.200Z,7.40
2022-10-05T04:14:24.118Z,8.75
2022-10-05T04:17:14.768Z,8.18
2022-10-05T04:20:08.562Z,8.93
2022-10-05T04:23:20.035Z,7.97
2022-10-05T04:26:13.524Z,8.85
2022-10-05T04:29:09.645Z,8.95
2022-10-05T04:32:02.710Z,9.07
2022-10-05T04:35:21.760Z,9.18
2022-10-05T04:38:28.677Z,9.70
2022-10-05T04:41:39.018Z,9.90
2022-10-05T04:44:38.507Z,9.35
2022-10-05T04:47:48.193Z,9.65
2022-10-05T04:50:44.426Z,10.53
2022-10-05T04:53:43.093Z,9.88
2022-10-05T04:56:33.289Z,9.65
2022-10-05T04:59:38.618Z,10.18
2022-10-05T05:03:05.157Z,9.83
2022-10-05T05:06:17.467Z,9.90
2022-10-05T05:09:17.381Z,9.68
2022-10-05T05:12:14.261Z,10.65
2022-10-05T05:15:13.192Z,10.63
2022-10-05T05:18:11.993Z,11.57
2022-10-05T05:21:08.283Z,11.00
2022-10-05T05:24:13.146Z,10.30
2022-10-05T05:27:21.454Z,10.72
2022-10-05T05:30:17.980Z,10.45
2022-10-05T05:33:27.218Z,10.70
2022-10-05T05:36:38.473Z,13.40
2022-10-05T05:39:31.626Z,11.90
2022-10-05T05:42:41.647Z,11.78
2022-10-05T05:45:50.312Z,11.20
2022-10-05T05:48:46.718Z,11.57
2022-10-05T05:51:40.404Z,12.47
2022-10-05T05:54:43.484Z,11.75
2022-10-05T05:57:39.967Z,12.88
2022-10-05T06:00:30.555Z,12.03
2022-10-05T06:03:40.845Z,12.55
2022-10-05T06:06:31.468Z,13.65
2022-10-05T06:09:31.085Z,13.95
2022-10-05T06:12:23.971Z,13.70
2022-10-05T06:15:31.033Z,13.15
2022-10-05T06:18:21.572Z,13.62
2022-10-05T06:21:23.653Z,13.10
2022-10-05T06:24:25.977Z,12.80
2022-10-05T06:27:28.079Z,11.40
2022-10-05T06:30:17.815Z,11.30
2022-10-05T06:33:13.961Z,11.53
2022-10-05T06:36:16.296Z,11.65
2022-10-05T06:39:23.636Z,10.72
2022-10-05T06:45:24.635Z,11.12
2022-10-05T06:48:28.612Z,10.98
2022-10-05T06:51:23.251Z,11.10
2022-10-05T06:54:40.164Z,12.00
2022-10-05T06:57:36.879Z,11.90
2022-10-05T07:00:57.245Z,11.08
2022-10-05T07:03:56.596Z,11.28
2022-10-05T07:06:56.002Z,11.43
2022-10-05T07:09:52.155Z,10.23
2022-10-05T07:13:05.571Z,9.73
2022-10-05T07:16:07.585Z,9.03
2022-10-05T07:19:21.027Z,9.48
2022-10-05T07:22:20.303Z,9.88
2022-10-05T07:25:20.141Z,9.48
2022-10-05T07:28:10.495Z,9.68
2022-10-05T07:31:06.321Z,9.18
2022-10-05T07:34:11.859Z,8.80
2022-10-05T07:37:18.750Z,9.85
2022-10-05T07:40:18.075Z,9.53
2022-10-05T07:44:03.395Z,11.05
2022-10-05T07:47:09.414Z,11.83
2022-10-05T07:50:05.803Z,11.93
2022-10-05T07:53:21.199Z,12.55
2022-10-05T07:56:17.966Z,13.83
2022-10-05T07:59:17.500Z,14.80
2022-10-05T08:02:14.512Z,14.85
2022-10-05T08:05:13.347Z,15.23
2022-10-05T08:08:27.034Z,15.08
2022-10-05T08:11:49.639Z,15.15
2022-10-05T08:15:00.549Z,15.25
2022-10-05T08:18:14.242Z,16.05
2022-10-05T08:21:10.139Z,16.20
2022-10-05T08:24:23.379Z,15.98
2022-10-05T08:27:39.220Z,16.23
2022-10-05T08:30:27.329Z,17.52
2022-10-05T08:33:18.130Z,17.80
2022-10-05T08:36:09.254Z,17.85
2022-10-05T08:39:20.366Z,17.73
2022-10-05T08:46:14.281Z,17.25
2022-10-05T08:49:20.872Z,17.40
2022-10-05T08:52:34.308Z,15.83
2022-10-05T08:56:12.899Z,15.65
2022-10-05T08:59:26.580Z,16.12
2022-10-05T09:06:24.708Z,15.88
2022-10-05T09:09:43.774Z,16.17
2022-10-05T09:13:08.011Z,16.07
2022-10-05T09:23:05.279Z,14.83
2022-10-05T09:26:11.565Z,14.78
2022-10-05T09:29:26.019Z,14.38
2022-10-05T09:32:49.976Z,15.13
2022-10-05T09:36:07.348Z,13.80
2022-10-05T09:39:26.817Z,13.65
2022-10-05T09:42:31.963Z,14.47
2022-10-05T09:45:46.281Z,14.23
2022-10-05T09:48:37.381Z,13.08
2022-10-05T09:51:46.919Z,12.93
2022-10-05T09:55:09.321Z,12.15
2022-10-05T09:58:40.228Z,12.82
2022-10-05T10:01:58.463Z,13.18
2022-10-05T10:05:09.840Z,11.80
2022-10-05T10:08:20.340Z,16.90
2022-10-05T10:11:19.380Z,12.35
2022-10-05T10:14:12.805Z,12.60
2022-10-05T10:17:15.621Z,12.73
2022-10-05T10:20:18.270Z,13.00
2022-10-05T10:23:20.507Z,12.75
2022-10-05T10:26:17.301Z,11.78
2022-10-05T10:29:10.591Z,10.80
2022-10-05T10:32:01.536Z,11.60
2022-10-05T10:35:09.934Z,13.00
2022-10-05T10:38:03.196Z,12.13
2022-10-05T10:41:16.017Z,11.50
2022-10-05T10:44:12.222Z,10.82
2022-10-05T10:47:14.045Z,9.67
2022-10-05T10:50:23.891Z,10.38
2022-10-05T10:53:37.062Z,9.65
2022-10-05T10:56:56.092Z,9.33
2022-10-05T11:00:03.465Z,9.28
2022-10-05T11:03:08.948Z,8.83
2022-10-05T11:06:07.129Z,9.18
2022-10-05T11:09:24.125Z,8.98
2022-10-05T11:12:49.687Z,9.00
2022-10-05T11:16:15.971Z,8.93
2022-10-05T11:19:08.010Z,8.90
2022-10-05T11:22:16.026Z,8.63
2022-10-05T11:25:06.255Z,8.35
2022-10-05T11:28:14.990Z,8.08
2022-10-05T11:31:31.226Z,10.68
2022-10-05T11:34:43.862Z,8.43
2022-10-05T11:37:39.812Z,8.38
2022-10-05T11:40:36.315Z,9.03
2022-10-05T11:43:26.709Z,7.15
2022-10-05T11:46:35.251Z,7.45
2022-10-05T11:49:49.906Z,7.42
2022-10-05T11:52:55.770Z,8.30
2022-10-05T11:56:09.804Z,9.20
2022-10-05T11:59:07.155Z,7.15
2022-10-05T12:02:00.533Z,6.58
2022-10-05T12:05:13.645Z,6.80
2022-10-05T12:08:44.247Z,7.20
2022-10-05T12:12:01.250Z,7.17
2022-10-05T12:15:27.728Z,7.28
2022-10-05T12:18:34.249Z,7.15
2022-10-05T12:21:32.538Z,7.62
2022-10-05T12:24:38.626Z,6.78
2022-10-05T12:27:46.735Z,6.05
2022-10-05T12:30:58.133Z,4.30
2022-10-05T12:34:12.801Z,3.37
2022-10-05T12:37:09.432Z,3.10
2022-10-05T12:40:17.850Z,2.70
2022-10-05T12:43:31.394Z,2.70
2022-10-05T12:46:39.981Z,2.70
2022-10-05T12:49:45.180Z,2.60
2022-10-05T12:52:40.529Z,2.55
2022-10-05T12:55:53.086Z,2.45
2022-10-05T12:59:01.860Z,2.60
2022-10-05T13:02:26.144Z,2.50
2022-10-05T13:05:15.909Z,2.40
2022-10-05T13:08:10.467Z,2.80
2022-10-05T13:11:17.504Z,2.85
2022-10-05T13:14:07.926Z,2.67
2022-10-05T13:17:16.271Z,2.50
2022-10-05T13:20:24.583Z,2.30
2022-10-05T13:23:40.218Z,2.42
2022-10-05T13:26:30.598Z,2.12
2022-10-05T13:29:56.201Z,2.50
2022-10-05T13:33:19.756Z,2.27
2022-10-05T13:36:16.429Z,2.42
2022-10-05T13:39:32.166Z,2.42
2022-10-05T13:42:30.404Z,2.15
2022-10-05T13:45:27.053Z,2.20
2022-10-05T13:48:24.150Z,2.45
2022-10-05T13:51:15.617Z,2.40
2022-10-05T13:54:35.968Z,2.87
2022-10-05T13:57:25.499Z,2.27
2022-10-05T14:00:27.442Z,2.10
2022-10-05T14:03:42.437Z,2.15
2022-10-05T14:06:38.080Z,2.15
2022-10-05T14:09:47.171Z,2.55
2022-10-05T14:12:51.640Z,2.05
2022-10-05T14:15:45.851Z,2.40
2022-10-05T14:18:51.803Z,2.60
2022-10-05T14:21:59.650Z,2.20
2022-10-05T14:25:11.194Z,2.47
2022-10-05T14:28:20.611Z,2.20
2022-10-05T14:31:19.234Z,2.10
2022-10-05T14:34:31.693Z,2.12
2022-10-05T14:37:28.986Z,2.20
2022-10-05T14:40:33.863Z,1.92
2022-10-05T14:43:22.241Z,2.30
2022-10-05T14:46:25.314Z,1.75
2022-10-05T14:49:36.691Z,2.20
2022-10-05T14:52:49.609Z,1.95
2022-10-05T14:55:45.363Z,2.00
2022-10-05T15:02:37.412Z,2.08
2022-10-05T15:05:30.296Z,2.12
2022-10-05T15:08:53.520Z,1.82
2022-10-05T15:11:52.289Z,2.00
2022-10-05T15:14:44.903Z,2.02
2022-10-05T15:17:49.497Z,1.98
2022-10-05T15:20:48.604Z,2.08
2022-10-05T15:23:46.043Z,2.20
2022-10-05T15:26:45.719Z,2.50
2022-10-05T15:29:54.746Z,2.10
2022-10-05T15:33:05.166Z,1.75
2022-10-05T15:36:10.748Z,1.80
2022-10-05T15:39:01.890Z,2.10
2022-10-05T15:42:08.052Z,2.17
2022-10-05T15:45:07.705Z,2.40
2022-10-05T15:48:00.820Z,2.50
2022-10-05T15:50:57.243Z,2.42
2022-10-05T15:53:48.887Z,2.50
2022-10-05T15:56:39.314Z,2.58
2022-10-05T15:59:38.979Z,2.50
2022-10-05T16:02:32.402Z,2.10
2022-10-05T16:05:58.857Z,2.58
2022-10-05T16:08:58.663Z,3.35
2022-10-05T16:12:14.654Z,2.95
2022-10-05T16:15:21.749Z,2.40
2022-10-05T16:18:36.140Z,2.50
2022-10-05T16:21:43.441Z,2.22
2022-10-05T16:24:43.005Z,2.42
2022-10-05T16:28:07.662Z,2.40
2022-10-05T16:31:13.135Z,2.60
2022-10-05T16:34:18.113Z,2.55
2022-10-05T16:37:11.228Z,2.50
2022-10-05T16:40:18.539Z,2.45
2022-10-05T16:43:25.557Z,2.67
2022-10-05T16:46:22.067Z,2.67
2022-10-05T16:49:29.741Z,2.52
2022-10-05T16:52:21.318Z,2.47
2022-10-05T16:55:13.274Z,2.77
2022-10-05T16:58:02.917Z,2.58
2022-10-05T17:00:56.327Z,2.75
2022-10-05T17:04:06.429Z,2.65
2022-10-05T17:07:09.263Z,2.85
2022-10-05T17:10:26.693Z,2.45
2022-10-05T17:13:22.992Z,3.02
2022-10-05T17:16:37.404Z,3.25
2022-10-05T17:19:27.726Z,2.80
2022-10-05T17:22:40.998Z,3.22
2022-10-05T17:25:52.527Z,3.00
2022-10-05T17:28:59.523Z,2.90
2022-10-05T17:32:09.450Z,3.67
2022-10-05T17:35:18.418Z,3.37
2022-10-05T17:41:06.467Z,3.10
2022-10-05T17:44:16.655Z,3.00
2022-10-05T17:47:07.279Z,3.35
2022-10-05T17:50:17.641Z,2.45
2022-10-05T17:53:56.629Z,2.70
2022-10-05T17:59:41.327Z,2.45
2022-10-05T18:02:39.401Z,2.58
2022-10-05T18:05:28.730Z,2.20
2022-10-05T18:08:21.261Z,2.35
2022-10-05T18:11:16.042Z,2.17
2022-10-05T18:14:27.304Z,2.47
2022-10-05T18:17:14.820Z,2.22
2022-10-05T18:20:27.795Z,2.22
2022-10-05T18:23:25.358Z,2.83
2022-10-05T18:26:49.421Z,9.00
2022-10-05T18:30:05.545Z,3.92
2022-10-05T18:33:13.226Z,2.17
2022-10-05T18:36:16.137Z,2.50
2022-10-05T18:39:09.497Z,1.95
2022-10-05T18:42:06.979Z,2.00
2022-10-05T18:45:06.208Z,2.62
2022-10-05T18:47:56.503Z,2.30
2022-10-05T18:50:50.997Z,2.22
2022-10-05T18:53:41.632Z,2.30
2022-10-05T18:56:41.022Z,2.20
2022-10-05T18:59:50.899Z,2.00
2022-10-05T19:02:42.897Z,2.62
2022-10-05T19:05:48.790Z,2.30
2022-10-05T19:08:39.064Z,2.20
2022-10-05T19:11:42.000Z,2.12
2022-10-05T19:15:00.991Z,2.40
2022-10-05T19:17:58.794Z,2.42
2022-10-05T19:21:16.974Z,2.30
2022-10-05T19:24:10.404Z,2.20
2022-10-05T19:27:15.849Z,2.00
2022-10-05T19:30:06.312Z,2.52
2022-10-05T19:33:32.356Z,2.30
2022-10-05T19:36:25.936Z,2.83
2022-10-05T19:39:36.999Z,2.50
2022-10-05T19:42:46.032Z,2.45
2022-10-05T19:45:36.571Z,2.40
2022-10-05T19:48:51.127Z,2.20
2022-10-05T19:51:50.726Z,2.12
2022-10-05T19:54:38.322Z,2.17
2022-10-05T19:57:27.206Z,2.40
2022-10-05T20:00:35.668Z,2.08
2022-10-05T20:03:27.606Z,2.80
2022-10-05T20:06:14.933Z,2.02
2022-10-05T20:09:06.405Z,2.42
2022-10-05T20:11:54.409Z,2.40
2022-10-05T20:14:43.748Z,2.60
2022-10-05T20:17:49.347Z,2.72
2022-10-05T20:20:47.093Z,2.70
2022-10-05T20:23:32.740Z,2.80
2022-10-05T20:27:01.343Z,2.62
2022-10-05T20:29:48.846Z,2.92
2022-10-05T20:32:36.401Z,2.98
2022-10-05T20:35:25.255Z,3.08
2022-10-05T20:38:12.312Z,2.92
2022-10-05T20:40:59.672Z,2.90
2022-10-05T20:43:47.083Z,3.15
2022-10-05T20:46:34.347Z,3.25
2022-10-05T20:49:24.172Z,3.05
2022-10-05T20:52:14.463Z,3.15
2022-10-05T20:55:02.010Z,3.58
2022-10-05T20:57:49.412Z,3.30
2022-10-05T21:00:38.488Z,3.08
2022-10-05T21:03:25.925Z,3.37
2022-10-05T21:06:13.744Z,3.42
2022-10-05T21:09:01.357Z,3.75
2022-10-05T21:11:52.344Z,3.70
2022-10-05T21:14:40.527Z,3.65
2022-10-05T21:17:28.152Z,3.40
2022-10-05T21:20:15.357Z,3.40
2022-10-05T21:23:02.991Z,3.50
2022-10-05T21:25:50.988Z,3.87
2022-10-05T21:28:39.496Z,3.58
2022-10-05T21:31:28.848Z,3.50
2022-10-05T21:34:16.689Z,3.52
2022-10-05T21:37:03.858Z,3.90
2022-10-05T21:39:51.078Z,3.92
2022-10-05T21:42:38.273Z,3.85
2022-10-05T21:45:25.937Z,3.92
2022-10-05T21:48:15.684Z,3.70
2022-10-05T21:51:03.979Z,3.80
2022-10-05T21:54:03.473Z,3.52
2022-10-05T21:56:54.248Z,3.50
2022-10-05T21:59:43.388Z,2.90
2022-10-05T22:02:30.850Z,3.33
2022-10-05T22:05:18.165Z,3.00
2022-10-05T22:08:06.356Z,3.60
2022-10-05T22:10:56.754Z,3.85
2022-10-05T22:13:47.170Z,3.42
2022-10-05T22:16:37.130Z,3.17
2022-10-05T22:19:24.377Z,2.95
2022-10-05T22:22:12.103Z,3.50
2022-10-05T22:24:59.076Z,3.12
2022-10-05T22:27:46.870Z,2.98
2022-10-05T22:30:34.408Z,2.83
2022-10-05T22:33:21.720Z,3.12
2022-10-05T22:36:10.324Z,3.98
2022-10-05T22:38:57.796Z,2.80
2022-10-05T22:41:44.855Z,3.00
2022-10-05T22:44:32.785Z,2.85
2022-10-05T22:47:20.312Z,2.87
2022-10-05T22:50:09.270Z,3.17
2022-10-05T22:52:56.876Z,3.62
2022-10-05T22:55:44.368Z,4.20
2022-10-05T22:58:31.684Z,4.12
2022-10-05T23:01:19.955Z,5.00
2022-10-05T23:04:08.705Z,4.15
2022-10-05T23:06:55.895Z,4.80
2022-10-05T23:09:42.994Z,3.98
2022-10-05T23:12:30.500Z,3.72
2022-10-05T23:15:18.037Z,4.28
2022-10-05T23:18:05.317Z,4.75
2022-10-05T23:20:57.369Z,4.78
2022-10-05T23:23:48.353Z,4.08
2022-10-05T23:26:36.196Z,4.75
2022-10-05T23:29:23.668Z,4.10
2022-10-05T23:32:11.181Z,4.12
2022-10-05T23:34:58.567Z,4.12
2022-10-05T23:37:46.436Z,3.75
2022-10-05T23:40:34.264Z,3.77
2022-10-05T23:43:21.881Z,3.30
2022-10-05T23:46:10.159Z,3.90
2022-10-05T23:48:57.448Z,3.45
2022-10-05T23:51:45.143Z,3.17
2022-10-05T23:54:32.501Z,3.62
2022-10-05T23:57:20.727Z,3.55
